sensor_id;sensor_type;location;lat;lon;timestamp;P1;durP1;ratioP1;P2;durP2;ratioP2
62543;SDS011;48597;49.030;1.822;2022-08-19T00:01:47;3.42;;;3.13;;
62543;SDS011;48597;49.030;1.822;2022-08-19T00:04:17;3.30;;;3.00;;
62543;SDS011;48597;49.030;1.822;2022-08-19T00:06:45;3.22;;;3.00;;
62543;SDS011;48597;49.030;1.822;2022-08-19T00:09:12;3.00;;;2.80;;
62543;SDS011;48597;49.030;1.822;2022-08-19T00:11:39;3.40;;;3.10;;
62543;SDS011;48597;49.030;1.822;2022-08-19T00:14:06;2.92;;;2.65;;
62543;SDS011;48597;49.030;1.822;2022-08-19T00:16:34;3.15;;;2.95;;
62543;SDS011;48597;49.030;1.822;2022-08-19T00:19:01;2.95;;;2.75;;
62543;SDS011;48597;49.030;1.822;2022-08-19T00:21:27;3.33;;;3.05;;
62543;SDS011;48597;49.030;1.822;2022-08-19T00:23:55;3.03;;;2.75;;
62543;SDS011;48597;49.030;1.822;2022-08-19T00:26:26;2.90;;;2.70;;
62543;SDS011;48597;49.030;1.822;2022-08-19T00:28:52;3.17;;;2.95;;
62543;SDS011;48597;49.030;1.822;2022-08-19T00:31:18;3.83;;;2.90;;
62543;SDS011;48597;49.030;1.822;2022-08-19T00:33:43;3.30;;;3.00;;
62543;SDS011;48597;49.030;1.822;2022-08-19T00:36:09;3.33;;;2.97;;
62543;SDS011;48597;49.030;1.822;2022-08-19T00:38:35;3.35;;;2.83;;
62543;SDS011;48597;49.030;1.822;2022-08-19T00:41:06;3.20;;;2.90;;
62543;SDS011;48597;49.030;1.822;2022-08-19T00:43:32;3.13;;;2.83;;
62543;SDS011;48597;49.030;1.822;2022-08-19T00:45:58;3.10;;;2.80;;
62543;SDS011;48597;49.030;1.822;2022-08-19T00:48:24;3.33;;;2.88;;
62543;SDS011;48597;49.030;1.822;2022-08-19T00:50:50;3.00;;;2.80;;
62543;SDS011;48597;49.030;1.822;2022-08-19T00:53:20;2.83;;;2.63;;
62543;SDS011;48597;49.030;1.822;2022-08-19T00:55:48;3.55;;;2.88;;
62543;SDS011;48597;49.030;1.822;2022-08-19T00:58:16;3.00;;;2.78;;
62543;SDS011;48597;49.030;1.822;2022-08-19T01:00:44;2.85;;;2.65;;
62543;SDS011;48597;49.030;1.822;2022-08-19T01:03:11;3.38;;;3.08;;
62543;SDS011;48597;49.030;1.822;2022-08-19T01:05:41;3.10;;;2.80;;
62543;SDS011;48597;49.030;1.822;2022-08-19T01:08:08;3.00;;;2.80;;
62543;SDS011;48597;49.030;1.822;2022-08-19T01:10:39;3.03;;;2.72;;
62543;SDS011;48597;49.030;1.822;2022-08-19T01:13:06;3.13;;;2.70;;
62543;SDS011;48597;49.030;1.822;2022-08-19T01:15:33;3.03;;;2.70;;
62543;SDS011;48597;49.030;1.822;2022-08-19T01:18:07;3.13;;;2.50;;
62543;SDS011;48597;49.030;1.822;2022-08-19T01:20:34;3.10;;;2.80;;
62543;SDS011;48597;49.030;1.822;2022-08-19T01:23:00;3.00;;;2.67;;
62543;SDS011;48597;49.030;1.822;2022-08-19T01:25:28;3.13;;;2.92;;
62543;SDS011;48597;49.030;1.822;2022-08-19T01:27:56;2.97;;;2.65;;
62543;SDS011;48597;49.030;1.822;2022-08-19T01:30:27;3.00;;;2.80;;
62543;SDS011;48597;49.030;1.822;2022-08-19T01:32:54;3.30;;;3.00;;
62543;SDS011;48597;49.030;1.822;2022-08-19T01:35:21;2.95;;;2.70;;
62543;SDS011;48597;49.030;1.822;2022-08-19T01:37:53;3.30;;;3.00;;
62543;SDS011;48597;49.030;1.822;2022-08-19T01:40:21;3.08;;;2.55;;
62543;SDS011;48597;49.030;1.822;2022-08-19T01:42:51;3.00;;;2.80;;
62543;SDS011;48597;49.030;1.822;2022-08-19T01:45:17;2.80;;;2.60;;
62543;SDS011;48597;49.030;1.822;2022-08-19T01:47:44;2.67;;;2.47;;
62543;SDS011;48597;49.030;1.822;2022-08-19T01:50:10;2.88;;;2.67;;
62543;SDS011;48597;49.030;1.822;2022-08-19T01:52:36;3.00;;;2.70;;
62543;SDS011;48597;49.030;1.822;2022-08-19T01:55:04;3.28;;;2.97;;
62543;SDS011;48597;49.030;1.822;2022-08-19T01:57:32;2.88;;;2.67;;
62543;SDS011;48597;49.030;1.822;2022-08-19T01:59:57;2.88;;;2.67;;
62543;SDS011;48597;49.030;1.822;2022-08-19T02:02:24;2.92;;;2.72;;
62543;SDS011;48597;49.030;1.822;2022-08-19T02:04:50;2.80;;;2.60;;
62543;SDS011;48597;49.030;1.822;2022-08-19T02:07:18;2.90;;;2.70;;
62543;SDS011;48597;49.030;1.822;2022-08-19T02:09:45;2.97;;;2.78;;
62543;SDS011;48597;49.030;1.822;2022-08-19T02:12:10;3.00;;;2.80;;
62543;SDS011;48597;49.030;1.822;2022-08-19T02:14:36;3.17;;;2.88;;
62543;SDS011;48597;49.030;1.822;2022-08-19T02:17:02;2.90;;;2.67;;
62543;SDS011;48597;49.030;1.822;2022-08-19T02:19:28;2.90;;;2.70;;
62543;SDS011;48597;49.030;1.822;2022-08-19T02:21:53;2.90;;;2.70;;
62543;SDS011;48597;49.030;1.822;2022-08-19T02:24:19;2.95;;;2.60;;
62543;SDS011;48597;49.030;1.822;2022-08-19T02:26:44;2.90;;;2.70;;
62543;SDS011;48597;49.030;1.822;2022-08-19T02:29:10;2.97;;;2.78;;
62543;SDS011;48597;49.030;1.822;2022-08-19T02:31:35;4.43;;;2.92;;
62543;SDS011;48597;49.030;1.822;2022-08-19T02:34:01;3.00;;;2.70;;
62543;SDS011;48597;49.030;1.822;2022-08-19T02:36:26;2.72;;;2.53;;
62543;SDS011;48597;49.030;1.822;2022-08-19T02:38:53;2.88;;;2.63;;
62543;SDS011;48597;49.030;1.822;2022-08-19T02:41:23;3.15;;;2.80;;
62543;SDS011;48597;49.030;1.822;2022-08-19T02:43:56;2.72;;;2.50;;
62543;SDS011;48597;49.030;1.822;2022-08-19T02:46:24;3.28;;;2.97;;
62543;SDS011;48597;49.030;1.822;2022-08-19T02:48:52;2.90;;;2.70;;
62543;SDS011;48597;49.030;1.822;2022-08-19T02:51:21;2.72;;;2.53;;
62543;SDS011;48597;49.030;1.822;2022-08-19T02:53:48;3.13;;;2.80;;
62543;SDS011;48597;49.030;1.822;2022-08-19T02:56:14;2.60;;;2.40;;
62543;SDS011;48597;49.030;1.822;2022-08-19T02:58:40;3.00;;;2.70;;
62543;SDS011;48597;49.030;1.822;2022-08-19T03:01:06;2.75;;;2.55;;
62543;SDS011;48597;49.030;1.822;2022-08-19T03:03:31;2.58;;;2.38;;
62543;SDS011;48597;49.030;1.822;2022-08-19T03:06:04;2.92;;;2.72;;
62543;SDS011;48597;49.030;1.822;2022-08-19T03:08:31;3.15;;;2.95;;
62543;SDS011;48597;49.030;1.822;2022-08-19T03:10:57;2.90;;;2.70;;
62543;SDS011;48597;49.030;1.822;2022-08-19T03:13:22;2.75;;;2.50;;
62543;SDS011;48597;49.030;1.822;2022-08-19T03:15:48;3.17;;;2.95;;
62543;SDS011;48597;49.030;1.822;2022-08-19T03:18:14;2.75;;;2.55;;
62543;SDS011;48597;49.030;1.822;2022-08-19T03:20:44;4.47;;;3.08;;
62543;SDS011;48597;49.030;1.822;2022-08-19T03:23:19;2.63;;;2.42;;
62543;SDS011;48597;49.030;1.822;2022-08-19T03:25:46;3.05;;;2.75;;
62543;SDS011;48597;49.030;1.822;2022-08-19T03:28:14;2.70;;;2.50;;
62543;SDS011;48597;49.030;1.822;2022-08-19T03:30:41;3.08;;;2.88;;
62543;SDS011;48597;49.030;1.822;2022-08-19T03:33:08;3.20;;;2.90;;
62543;SDS011;48597;49.030;1.822;2022-08-19T03:35:34;2.95;;;2.72;;
62543;SDS011;48597;49.030;1.822;2022-08-19T03:38:04;3.33;;;3.03;;
62543;SDS011;48597;49.030;1.822;2022-08-19T03:40:31;3.72;;;2.70;;
62543;SDS011;48597;49.030;1.822;2022-08-19T03:42:59;3.03;;;2.83;;
62543;SDS011;48597;49.030;1.822;2022-08-19T03:45:25;3.10;;;2.90;;
62543;SDS011;48597;49.030;1.822;2022-08-19T03:47:51;3.47;;;3.17;;
62543;SDS011;48597;49.030;1.822;2022-08-19T03:50:16;2.80;;;2.60;;
62543;SDS011;48597;49.030;1.822;2022-08-19T03:52:42;3.33;;;3.03;;
62543;SDS011;48597;49.030;1.822;2022-08-19T03:55:13;3.40;;;3.10;;
62543;SDS011;48597;49.030;1.822;2022-08-19T03:57:38;3.30;;;3.00;;
62543;SDS011;48597;49.030;1.822;2022-08-19T04:00:04;3.20;;;3.00;;
62543;SDS011;48597;49.030;1.822;2022-08-19T04:02:31;3.47;;;3.10;;
62543;SDS011;48597;49.030;1.822;2022-08-19T04:04:56;3.25;;;3.05;;
62543;SDS011;48597;49.030;1.822;2022-08-19T04:07:22;3.10;;;2.90;;
62543;SDS011;48597;49.030;1.822;2022-08-19T04:09:48;3.20;;;2.90;;
62543;SDS011;48597;49.030;1.822;2022-08-19T04:12:13;3.50;;;2.90;;
62543;SDS011;48597;49.030;1.822;2022-08-19T04:14:39;3.67;;;3.00;;
62543;SDS011;48597;49.030;1.822;2022-08-19T04:17:05;3.40;;;3.10;;
62543;SDS011;48597;49.030;1.822;2022-08-19T04:19:30;3.15;;;2.95;;
62543;SDS011;48597;49.030;1.822;2022-08-19T04:21:56;3.13;;;2.83;;
62543;SDS011;48597;49.030;1.822;2022-08-19T04:24:23;3.35;;;3.05;;
62543;SDS011;48597;49.030;1.822;2022-08-19T04:26:49;3.10;;;2.90;;
62543;SDS011;48597;49.030;1.822;2022-08-19T04:29:17;3.05;;;2.75;;
62543;SDS011;48597;49.030;1.822;2022-08-19T04:31:47;3.28;;;2.97;;
62543;SDS011;48597;49.030;1.822;2022-08-19T04:34:15;4.03;;;3.22;;
62543;SDS011;48597;49.030;1.822;2022-08-19T04:36:43;2.92;;;2.72;;
62543;SDS011;48597;49.030;1.822;2022-08-19T04:39:13;3.30;;;2.97;;
62543;SDS011;48597;49.030;1.822;2022-08-19T04:41:41;3.13;;;2.85;;
62543;SDS011;48597;49.030;1.822;2022-08-19T04:44:25;3.53;;;3.22;;
62543;SDS011;48597;49.030;1.822;2022-08-19T04:46:51;3.55;;;3.20;;
62543;SDS011;48597;49.030;1.822;2022-08-19T04:49:18;3.22;;;2.90;;
62543;SDS011;48597;49.030;1.822;2022-08-19T04:51:47;3.63;;;2.72;;
62543;SDS011;48597;49.030;1.822;2022-08-19T04:54:14;3.40;;;3.10;;
62543;SDS011;48597;49.030;1.822;2022-08-19T04:56:41;2.95;;;2.67;;
62543;SDS011;48597;49.030;1.822;2022-08-19T04:59:07;3.13;;;2.90;;
62543;SDS011;48597;49.030;1.822;2022-08-19T05:01:33;3.20;;;2.83;;
62543;SDS011;48597;49.030;1.822;2022-08-19T05:04:01;2.83;;;2.63;;
62543;SDS011;48597;49.030;1.822;2022-08-19T05:06:29;2.75;;;2.40;;
62543;SDS011;48597;49.030;1.822;2022-08-19T05:08:58;3.20;;;2.55;;
62543;SDS011;48597;49.030;1.822;2022-08-19T05:11:25;3.13;;;2.70;;
62543;SDS011;48597;49.030;1.822;2022-08-19T05:13:53;3.13;;;2.70;;
62543;SDS011;48597;49.030;1.822;2022-08-19T05:16:19;3.42;;;2.95;;
62543;SDS011;48597;49.030;1.822;2022-08-19T05:18:47;3.00;;;2.80;;
62543;SDS011;48597;49.030;1.822;2022-08-19T05:21:32;4.85;;;2.70;;
62543;SDS011;48597;49.030;1.822;2022-08-19T05:24:17;3.80;;;2.80;;
62543;SDS011;48597;49.030;1.822;2022-08-19T05:26:44;3.25;;;2.58;;
62543;SDS011;48597;49.030;1.822;2022-08-19T05:29:12;5.03;;;2.50;;
62543;SDS011;48597;49.030;1.822;2022-08-19T05:31:39;5.00;;;2.63;;
62543;SDS011;48597;49.030;1.822;2022-08-19T05:34:05;3.15;;;2.50;;
62543;SDS011;48597;49.030;1.822;2022-08-19T05:36:35;3.90;;;2.53;;
62543;SDS011;48597;49.030;1.822;2022-08-19T05:39:11;2.97;;;2.22;;
62543;SDS011;48597;49.030;1.822;2022-08-19T05:41:43;2.45;;;2.25;;
62543;SDS011;48597;49.030;1.822;2022-08-19T05:44:10;2.50;;;2.30;;
62543;SDS011;48597;49.030;1.822;2022-08-19T05:46:36;2.55;;;2.25;;
62543;SDS011;48597;49.030;1.822;2022-08-19T05:49:03;3.65;;;2.30;;
62543;SDS011;48597;49.030;1.822;2022-08-19T05:51:30;3.83;;;2.30;;
62543;SDS011;48597;49.030;1.822;2022-08-19T05:53:56;2.33;;;2.13;;
62543;SDS011;48597;49.030;1.822;2022-08-19T05:56:22;3.55;;;2.22;;
62543;SDS011;48597;49.030;1.822;2022-08-19T05:58:48;4.28;;;2.00;;
62543;SDS011;48597;49.030;1.822;2022-08-19T06:01:15;2.78;;;2.38;;
62543;SDS011;48597;49.030;1.822;2022-08-19T06:03:42;2.40;;;2.20;;
62543;SDS011;48597;49.030;1.822;2022-08-19T06:06:08;2.30;;;1.88;;
62543;SDS011;48597;49.030;1.822;2022-08-19T06:08:35;2.13;;;1.90;;
62543;SDS011;48597;49.030;1.822;2022-08-19T06:14:00;2.20;;;2.00;;
62543;SDS011;48597;49.030;1.822;2022-08-19T06:16:28;4.60;;;2.30;;
62543;SDS011;48597;49.030;1.822;2022-08-19T06:19:00;3.65;;;2.15;;
62543;SDS011;48597;49.030;1.822;2022-08-19T06:21:28;3.38;;;2.17;;
62543;SDS011;48597;49.030;1.822;2022-08-19T06:23:55;2.50;;;2.20;;
62543;SDS011;48597;49.030;1.822;2022-08-19T06:26:21;4.90;;;2.00;;
62543;SDS011;48597;49.030;1.822;2022-08-19T06:28:48;3.30;;;1.90;;
62543;SDS011;48597;49.030;1.822;2022-08-19T06:31:15;4.53;;;2.08;;
62543;SDS011;48597;49.030;1.822;2022-08-19T06:33:46;3.90;;;1.98;;
62543;SDS011;48597;49.030;1.822;2022-08-19T06:39:05;4.25;;;2.08;;
62543;SDS011;48597;49.030;1.822;2022-08-19T06:41:40;4.22;;;2.20;;
62543;SDS011;48597;49.030;1.822;2022-08-19T06:44:08;4.53;;;1.85;;
62543;SDS011;48597;49.030;1.822;2022-08-19T06:46:34;4.13;;;2.03;;
62543;SDS011;48597;49.030;1.822;2022-08-19T06:49:00;5.28;;;2.30;;
62543;SDS011;48597;49.030;1.822;2022-08-19T06:51:26;3.92;;;1.77;;
62543;SDS011;48597;49.030;1.822;2022-08-19T06:53:52;3.88;;;2.05;;
62543;SDS011;48597;49.030;1.822;2022-08-19T06:56:20;2.65;;;1.65;;
62543;SDS011;48597;49.030;1.822;2022-08-19T06:58:49;2.38;;;1.60;;
62543;SDS011;48597;49.030;1.822;2022-08-19T07:01:17;2.38;;;1.80;;
62543;SDS011;48597;49.030;1.822;2022-08-19T07:03:43;2.20;;;1.67;;
62543;SDS011;48597;49.030;1.822;2022-08-19T07:06:10;2.38;;;1.80;;
62543;SDS011;48597;49.030;1.822;2022-08-19T07:08:39;3.63;;;1.58;;
62543;SDS011;48597;49.030;1.822;2022-08-19T07:11:08;2.58;;;1.55;;
62543;SDS011;48597;49.030;1.822;2022-08-19T07:13:35;4.10;;;1.45;;
62543;SDS011;48597;49.030;1.822;2022-08-19T07:16:08;1.88;;;1.60;;
62543;SDS011;48597;49.030;1.822;2022-08-19T07:18:35;3.75;;;1.60;;
62543;SDS011;48597;49.030;1.822;2022-08-19T07:21:08;2.30;;;1.70;;
62543;SDS011;48597;49.030;1.822;2022-08-19T07:23:38;3.20;;;1.48;;
62543;SDS011;48597;49.030;1.822;2022-08-19T07:26:05;1.88;;;1.48;;
62543;SDS011;48597;49.030;1.822;2022-08-19T07:28:32;2.53;;;1.50;;
62543;SDS011;48597;49.030;1.822;2022-08-19T07:30:57;1.73;;;1.58;;
62543;SDS011;48597;49.030;1.822;2022-08-19T07:33:23;3.13;;;1.48;;
62543;SDS011;48597;49.030;1.822;2022-08-19T07:35:48;1.90;;;1.42;;
62543;SDS011;48597;49.030;1.822;2022-08-19T07:38:14;1.77;;;1.40;;
62543;SDS011;48597;49.030;1.822;2022-08-19T07:40:41;2.10;;;1.50;;
62543;SDS011;48597;49.030;1.822;2022-08-19T07:43:08;2.08;;;1.40;;
62543;SDS011;48597;49.030;1.822;2022-08-19T07:45:34;3.88;;;1.58;;
62543;SDS011;48597;49.030;1.822;2022-08-19T07:47:59;2.05;;;1.65;;
62543;SDS011;48597;49.030;1.822;2022-08-19T07:50:26;1.70;;;1.42;;
62543;SDS011;48597;49.030;1.822;2022-08-19T07:52:51;2.88;;;1.48;;
62543;SDS011;48597;49.030;1.822;2022-08-19T07:55:21;2.25;;;1.50;;
62543;SDS011;48597;49.030;1.822;2022-08-19T07:57:48;1.35;;;1.23;;
62543;SDS011;48597;49.030;1.822;2022-08-19T08:00:14;2.83;;;1.35;;
62543;SDS011;48597;49.030;1.822;2022-08-19T08:02:39;1.83;;;1.27;;
62543;SDS011;48597;49.030;1.822;2022-08-19T08:05:07;1.30;;;1.20;;
62543;SDS011;48597;49.030;1.822;2022-08-19T08:07:52;2.60;;;1.40;;
62543;SDS011;48597;49.030;1.822;2022-08-19T08:10:36;1.83;;;1.30;;
62543;SDS011;48597;49.030;1.822;2022-08-19T08:13:01;1.50;;;1.30;;
62543;SDS011;48597;49.030;1.822;2022-08-19T08:15:30;1.88;;;1.35;;
62543;SDS011;48597;49.030;1.822;2022-08-19T08:17:56;1.67;;;1.30;;
62543;SDS011;48597;49.030;1.822;2022-08-19T08:20:22;1.73;;;1.17;;
62543;SDS011;48597;49.030;1.822;2022-08-19T08:22:48;1.40;;;1.30;;
62543;SDS011;48597;49.030;1.822;2022-08-19T08:25:32;2.70;;;1.20;;
62543;SDS011;48597;49.030;1.822;2022-08-19T08:28:00;1.40;;;1.30;;
62543;SDS011;48597;49.030;1.822;2022-08-19T08:30:28;1.30;;;1.17;;
62543;SDS011;48597;49.030;1.822;2022-08-19T08:32:54;1.25;;;1.15;;
62543;SDS011;48597;49.030;1.822;2022-08-19T08:35:20;3.08;;;1.10;;
62543;SDS011;48597;49.030;1.822;2022-08-19T08:37:48;1.45;;;1.20;;
62543;SDS011;48597;49.030;1.822;2022-08-19T08:43:37;1.30;;;1.20;;
62543;SDS011;48597;49.030;1.822;2022-08-19T08:46:12;1.70;;;1.10;;
62543;SDS011;48597;49.030;1.822;2022-08-19T08:51:37;1.00;;;1.00;;
62543;SDS011;48597;49.030;1.822;2022-08-19T08:54:08;1.27;;;1.10;;
62543;SDS011;48597;49.030;1.822;2022-08-19T08:56:38;1.70;;;1.00;;
62543;SDS011;48597;49.030;1.822;2022-08-19T08:59:07;1.60;;;1.23;;
62543;SDS011;48597;49.030;1.822;2022-08-19T09:01:42;1.10;;;1.00;;
62543;SDS011;48597;49.030;1.822;2022-08-19T09:04:07;2.15;;;1.20;;
62543;SDS011;48597;49.030;1.822;2022-08-19T09:09:48;1.00;;;1.00;;
62543;SDS011;48597;49.030;1.822;2022-08-19T09:15:00;1.10;;;1.00;;
62543;SDS011;48597;49.030;1.822;2022-08-19T09:17:29;1.25;;;0.90;;
62543;SDS011;48597;49.030;1.822;2022-08-19T09:20:00;1.67;;;1.20;;
62543;SDS011;48597;49.030;1.822;2022-08-19T09:22:33;1.30;;;0.98;;
62543;SDS011;48597;49.030;1.822;2022-08-19T09:25:00;0.90;;;0.90;;
62543;SDS011;48597;49.030;1.822;2022-08-19T09:27:27;1.50;;;1.20;;
62543;SDS011;48597;49.030;1.822;2022-08-19T09:29:53;1.25;;;1.15;;
62543;SDS011;48597;49.030;1.822;2022-08-19T09:32:20;1.20;;;0.90;;
62543;SDS011;48597;49.030;1.822;2022-08-19T09:34:47;1.52;;;0.90;;
62543;SDS011;48597;49.030;1.822;2022-08-19T09:37:13;1.20;;;1.10;;
62543;SDS011;48597;49.030;1.822;2022-08-19T09:39:39;1.75;;;1.08;;
62543;SDS011;48597;49.030;1.822;2022-08-19T09:42:07;0.93;;;0.90;;
62543;SDS011;48597;49.030;1.822;2022-08-19T09:44:38;1.42;;;1.10;;
62543;SDS011;48597;49.030;1.822;2022-08-19T09:47:05;1.27;;;1.00;;
62543;SDS011;48597;49.030;1.822;2022-08-19T09:49:31;1.05;;;0.95;;
62543;SDS011;48597;49.030;1.822;2022-08-19T09:51:56;1.10;;;0.90;;
62543;SDS011;48597;49.030;1.822;2022-08-19T09:54:22;1.05;;;0.98;;
62543;SDS011;48597;49.030;1.822;2022-08-19T09:56:48;1.10;;;1.00;;
62543;SDS011;48597;49.030;1.822;2022-08-19T09:59:13;1.20;;;1.10;;
62543;SDS011;48597;49.030;1.822;2022-08-19T10:01:39;2.25;;;1.13;;
62543;SDS011;48597;49.030;1.822;2022-08-19T10:04:05;1.17;;;0.98;;
62543;SDS011;48597;49.030;1.822;2022-08-19T10:06:34;1.27;;;1.00;;
62543;SDS011;48597;49.030;1.822;2022-08-19T10:09:01;0.80;;;0.80;;
62543;SDS011;48597;49.030;1.822;2022-08-19T10:11:31;1.20;;;1.00;;
62543;SDS011;48597;49.030;1.822;2022-08-19T10:13:58;1.10;;;1.00;;
62543;SDS011;48597;49.030;1.822;2022-08-19T10:16:25;1.00;;;1.00;;
62543;SDS011;48597;49.030;1.822;2022-08-19T10:18:50;0.90;;;0.90;;
62543;SDS011;48597;49.030;1.822;2022-08-19T10:23:50;1.00;;;0.90;;
62543;SDS011;48597;49.030;1.822;2022-08-19T10:26:19;1.38;;;0.98;;
62543;SDS011;48597;49.030;1.822;2022-08-19T10:28:50;0.98;;;0.90;;
62543;SDS011;48597;49.030;1.822;2022-08-19T10:31:16;1.15;;;0.95;;
62543;SDS011;48597;49.030;1.822;2022-08-19T10:33:48;0.90;;;0.90;;
62543;SDS011;48597;49.030;1.822;2022-08-19T10:36:15;0.80;;;0.80;;
62543;SDS011;48597;49.030;1.822;2022-08-19T10:38:48;0.93;;;0.90;;
62543;SDS011;48597;49.030;1.822;2022-08-19T10:41:17;1.17;;;0.77;;
62543;SDS011;48597;49.030;1.822;2022-08-19T10:43:44;1.25;;;1.00;;
62543;SDS011;48597;49.030;1.822;2022-08-19T10:46:11;1.13;;;0.80;;
62543;SDS011;48597;49.030;1.822;2022-08-19T10:48:38;1.08;;;1.00;;
62543;SDS011;48597;49.030;1.822;2022-08-19T10:51:03;1.05;;;0.93;;
62543;SDS011;48597;49.030;1.822;2022-08-19T10:53:49;1.00;;;0.70;;
62543;SDS011;48597;49.030;1.822;2022-08-19T10:56:15;0.95;;;0.90;;
62543;SDS011;48597;49.030;1.822;2022-08-19T10:58:59;0.88;;;0.80;;
62543;SDS011;48597;49.030;1.822;2022-08-19T11:01:25;0.90;;;0.90;;
62543;SDS011;48597;49.030;1.822;2022-08-19T11:03:51;1.20;;;1.00;;
62543;SDS011;48597;49.030;1.822;2022-08-19T11:06:17;1.13;;;0.90;;
62543;SDS011;48597;49.030;1.822;2022-08-19T11:08:44;0.98;;;0.88;;
62543;SDS011;48597;49.030;1.822;2022-08-19T11:11:10;0.90;;;0.90;;
62543;SDS011;48597;49.030;1.822;2022-08-19T11:13:37;0.80;;;0.80;;
62543;SDS011;48597;49.030;1.822;2022-08-19T11:16:08;0.70;;;0.70;;
62543;SDS011;48597;49.030;1.822;2022-08-19T11:18:43;0.88;;;0.88;;
62543;SDS011;48597;49.030;1.822;2022-08-19T11:23:45;0.80;;;0.80;;
62543;SDS011;48597;49.030;1.822;2022-08-19T11:26:13;1.15;;;0.90;;
62543;SDS011;48597;49.030;1.822;2022-08-19T11:28:40;0.65;;;0.65;;
62543;SDS011;48597;49.030;1.822;2022-08-19T11:31:10;0.90;;;0.90;;
62543;SDS011;48597;49.030;1.822;2022-08-19T11:33:39;0.90;;;0.75;;
62543;SDS011;48597;49.030;1.822;2022-08-19T11:36:05;1.00;;;0.80;;
62543;SDS011;48597;49.030;1.822;2022-08-19T11:38:32;0.90;;;0.90;;
62543;SDS011;48597;49.030;1.822;2022-08-19T11:40:59;0.85;;;0.80;;
62543;SDS011;48597;49.030;1.822;2022-08-19T11:43:26;0.80;;;0.80;;
62543;SDS011;48597;49.030;1.822;2022-08-19T11:45:54;1.63;;;0.80;;
62543;SDS011;48597;49.030;1.822;2022-08-19T11:48:20;1.00;;;1.00;;
62543;SDS011;48597;49.030;1.822;2022-08-19T11:50:47;0.70;;;0.70;;
62543;SDS011;48597;49.030;1.822;2022-08-19T11:53:19;0.80;;;0.80;;
62543;SDS011;48597;49.030;1.822;2022-08-19T11:55:45;0.88;;;0.88;;
62543;SDS011;48597;49.030;1.822;2022-08-19T11:58:15;1.20;;;1.10;;
62543;SDS011;48597;49.030;1.822;2022-08-19T12:00:42;1.00;;;0.90;;
62543;SDS011;48597;49.030;1.822;2022-08-19T12:03:10;1.02;;;0.93;;
62543;SDS011;48597;49.030;1.822;2022-08-19T12:05:37;1.08;;;1.00;;
62543;SDS011;48597;49.030;1.822;2022-08-19T12:08:03;0.88;;;0.80;;
62543;SDS011;48597;49.030;1.822;2022-08-19T12:10:28;0.95;;;0.90;;
62543;SDS011;48597;49.030;1.822;2022-08-19T12:12:53;0.80;;;0.80;;
62543;SDS011;48597;49.030;1.822;2022-08-19T12:15:19;0.90;;;0.80;;
62543;SDS011;48597;49.030;1.822;2022-08-19T12:17:44;0.73;;;0.73;;
62543;SDS011;48597;49.030;1.822;2022-08-19T12:20:10;1.20;;;1.10;;
62543;SDS011;48597;49.030;1.822;2022-08-19T12:22:38;0.85;;;0.85;;
62543;SDS011;48597;49.030;1.822;2022-08-19T12:25:04;0.85;;;0.85;;
62543;SDS011;48597;49.030;1.822;2022-08-19T12:27:30;0.80;;;0.80;;
62543;SDS011;48597;49.030;1.822;2022-08-19T12:29:56;0.90;;;0.90;;
62543;SDS011;48597;49.030;1.822;2022-08-19T12:32:22;0.60;;;0.60;;
62543;SDS011;48597;49.030;1.822;2022-08-19T12:34:49;0.82;;;0.82;;
62543;SDS011;48597;49.030;1.822;2022-08-19T12:37:15;0.77;;;0.77;;
62543;SDS011;48597;49.030;1.822;2022-08-19T12:39:41;0.80;;;0.80;;
62543;SDS011;48597;49.030;1.822;2022-08-19T12:42:08;0.90;;;0.85;;
62543;SDS011;48597;49.030;1.822;2022-08-19T12:44:36;0.98;;;0.90;;
62543;SDS011;48597;49.030;1.822;2022-08-19T12:47:04;1.08;;;0.95;;
62543;SDS011;48597;49.030;1.822;2022-08-19T12:49:31;1.25;;;0.90;;
62543;SDS011;48597;49.030;1.822;2022-08-19T12:51:59;1.02;;;0.90;;
62543;SDS011;48597;49.030;1.822;2022-08-19T12:54:32;0.80;;;0.80;;
62543;SDS011;48597;49.030;1.822;2022-08-19T12:56:58;0.80;;;0.80;;
62543;SDS011;48597;49.030;1.822;2022-08-19T12:59:24;1.10;;;0.80;;
62543;SDS011;48597;49.030;1.822;2022-08-19T13:01:51;0.90;;;0.80;;
62543;SDS011;48597;49.030;1.822;2022-08-19T13:04:16;0.70;;;0.70;;
62543;SDS011;48597;49.030;1.822;2022-08-19T13:06:43;0.90;;;0.90;;
62543;SDS011;48597;49.030;1.822;2022-08-19T13:09:08;0.85;;;0.85;;
62543;SDS011;48597;49.030;1.822;2022-08-19T13:11:34;0.85;;;0.80;;
62543;SDS011;48597;49.030;1.822;2022-08-19T13:14:00;0.85;;;0.85;;
62543;SDS011;48597;49.030;1.822;2022-08-19T13:16:27;0.82;;;0.82;;
62543;SDS011;48597;49.030;1.822;2022-08-19T13:18:53;1.13;;;0.80;;
62543;SDS011;48597;49.030;1.822;2022-08-19T13:21:20;0.70;;;0.70;;
62543;SDS011;48597;49.030;1.822;2022-08-19T13:23:48;0.80;;;0.75;;
62543;SDS011;48597;49.030;1.822;2022-08-19T13:26:14;0.60;;;0.60;;
62543;SDS011;48597;49.030;1.822;2022-08-19T13:28:40;1.23;;;0.75;;
62543;SDS011;48597;49.030;1.822;2022-08-19T13:31:26;0.70;;;0.70;;
62543;SDS011;48597;49.030;1.822;2022-08-19T13:34:14;0.80;;;0.80;;
62543;SDS011;48597;49.030;1.822;2022-08-19T13:36:40;0.80;;;0.80;;
62543;SDS011;48597;49.030;1.822;2022-08-19T13:39:07;0.68;;;0.68;;
62543;SDS011;48597;49.030;1.822;2022-08-19T13:41:33;0.80;;;0.80;;
62543;SDS011;48597;49.030;1.822;2022-08-19T13:43:59;0.70;;;0.70;;
62543;SDS011;48597;49.030;1.822;2022-08-19T13:46:24;0.90;;;0.70;;
62543;SDS011;48597;49.030;1.822;2022-08-19T13:48:50;0.90;;;0.90;;
62543;SDS011;48597;49.030;1.822;2022-08-19T13:51:16;0.80;;;0.80;;
62543;SDS011;48597;49.030;1.822;2022-08-19T13:53:42;0.88;;;0.88;;
62543;SDS011;48597;49.030;1.822;2022-08-19T13:56:09;0.80;;;0.80;;
62543;SDS011;48597;49.030;1.822;2022-08-19T13:58:37;0.80;;;0.80;;
62543;SDS011;48597;49.030;1.822;2022-08-19T14:01:04;0.80;;;0.80;;
62543;SDS011;48597;49.030;1.822;2022-08-19T14:03:30;0.70;;;0.70;;
62543;SDS011;48597;49.030;1.822;2022-08-19T14:05:56;0.75;;;0.75;;
62543;SDS011;48597;49.030;1.822;2022-08-19T14:08:22;0.70;;;0.70;;
62543;SDS011;48597;49.030;1.822;2022-08-19T14:10:48;0.70;;;0.70;;
62543;SDS011;48597;49.030;1.822;2022-08-19T14:13:15;0.90;;;0.80;;
62543;SDS011;48597;49.030;1.822;2022-08-19T14:15:42;0.73;;;0.70;;
62543;SDS011;48597;49.030;1.822;2022-08-19T14:18:08;0.73;;;0.73;;
62543;SDS011;48597;49.030;1.822;2022-08-19T14:20:34;0.70;;;0.70;;
62543;SDS011;48597;49.030;1.822;2022-08-19T14:23:00;0.88;;;0.80;;
62543;SDS011;48597;49.030;1.822;2022-08-19T14:25:27;0.75;;;0.70;;
62543;SDS011;48597;49.030;1.822;2022-08-19T14:27:54;0.65;;;0.65;;
62543;SDS011;48597;49.030;1.822;2022-08-19T14:30:24;0.70;;;0.70;;
62543;SDS011;48597;49.030;1.822;2022-08-19T14:32:52;0.70;;;0.70;;
62543;SDS011;48597;49.030;1.822;2022-08-19T14:35:19;0.93;;;0.70;;
62543;SDS011;48597;49.030;1.822;2022-08-19T14:37:46;0.93;;;0.73;;
62543;SDS011;48597;49.030;1.822;2022-08-19T14:40:12;0.75;;;0.75;;
62543;SDS011;48597;49.030;1.822;2022-08-19T14:42:39;0.80;;;0.80;;
62543;SDS011;48597;49.030;1.822;2022-08-19T14:45:06;1.15;;;0.80;;
62543;SDS011;48597;49.030;1.822;2022-08-19T14:47:32;0.50;;;0.50;;
62543;SDS011;48597;49.030;1.822;2022-08-19T14:49:57;0.77;;;0.77;;
62543;SDS011;48597;49.030;1.822;2022-08-19T14:52:23;0.80;;;0.80;;
62543;SDS011;48597;49.030;1.822;2022-08-19T14:54:48;0.73;;;0.73;;
62543;SDS011;48597;49.030;1.822;2022-08-19T14:57:14;0.70;;;0.70;;
62543;SDS011;48597;49.030;1.822;2022-08-19T14:59:41;0.60;;;0.60;;
62543;SDS011;48597;49.030;1.822;2022-08-19T15:02:07;0.77;;;0.77;;
62543;SDS011;48597;49.030;1.822;2022-08-19T15:04:32;0.70;;;0.70;;
62543;SDS011;48597;49.030;1.822;2022-08-19T15:06:58;0.80;;;0.70;;
62543;SDS011;48597;49.030;1.822;2022-08-19T15:09:23;0.75;;;0.75;;
62543;SDS011;48597;49.030;1.822;2022-08-19T15:11:48;0.63;;;0.63;;
62543;SDS011;48597;49.030;1.822;2022-08-19T15:14:14;0.60;;;0.60;;